Time;durP1;ratioP1;P1;durP2;ratioP2;P2;SDS_P1;SDS_P2;PMS_P1;PMS_P2;Temp;Humidity;BMP_temperature;BMP_pressure;BME280_temperature;BME280_humidity;BME280_pressure;Samples;Min_cycle;Max_cycle;Signal;HPM_P1;HPM_P2
2021/01/17 00:00:38;;;;;;;;;42.67;38.67;;;;;;;;5019764;28;11571;-87
2021/01/17 00:03:05;;;;;;;;;40.33;36.33;;;;;;;;5021639;28;11605;-86
2021/01/17 00:05:32;;;;;;;;;42.67;39.67;;;;;;;;4987020;28;8853;-86
2021/01/17 00:08:00;;;;;;;;;39.33;38.00;;;;;;;;5015611;28;11606;-84
2021/01/17 00:10:29;;;;;;;;;51.67;42.00;;;;;;;;5011572;28;8864;-78
2021/01/17 00:12:57;;;;;;;;;36.00;32.33;;;;;;;;5021679;28;11573;-83
2021/01/17 00:15:24;;;;;;;;;42.00;39.67;;;;;;;;5018356;28;11592;-80
2021/01/17 00:17:51;;;;;;;;;40.67;39.67;;;;;;;;5017841;28;11598;-83
2021/01/17 00:20:20;;;;;;;;;39.33;36.33;;;;;;;;5003717;28;11676;-82
2021/01/17 00:22:47;;;;;;;;;39.33;35.33;;;;;;;;5020751;28;11615;-84
2021/01/17 00:25:16;;;;;;;;;40.00;35.67;;;;;;;;5023044;28;11602;-84
2021/01/17 00:27:44;;;;;;;;;33.33;21.00;;;;;;;;5018794;28;11685;-82
2021/01/17 00:30:14;;;;;;;;;29.67;29.33;;;;;;;;5021226;28;11566;-83
2021/01/17 00:32:41;;;;;;;;;36.67;32.67;;;;;;;;5025113;28;11574;-84
2021/01/17 00:35:09;;;;;;;;;26.33;26.33;;;;;;;;5022549;28;11556;-80
2021/01/17 00:37:36;;;;;;;;;40.33;33.33;;;;;;;;5007807;28;11537;-83
2021/01/17 00:40:04;;;;;;;;;44.00;42.00;;;;;;;;5007757;28;11566;-84
2021/01/17 00:42:34;;;;;;;;;36.00;32.33;;;;;;;;5027400;28;11621;-84
2021/01/17 00:45:02;;;;;;;;;43.00;39.00;;;;;;;;5029128;28;12360;-83
2021/01/17 00:47:29;;;;;;;;;45.33;43.00;;;;;;;;5046410;28;11691;-86
2021/01/17 00:49:56;;;;;;;;;48.33;39.33;;;;;;;;5045327;28;11565;-81
2021/01/17 00:52:23;;;;;;;;;43.67;41.00;;;;;;;;5046169;28;12391;-85
2021/01/17 00:54:51;;;;;;;;;46.00;35.33;;;;;;;;5044543;28;11566;-81
2021/01/17 00:57:18;;;;;;;;;45.67;35.67;;;;;;;;5044588;28;8876;-81
2021/01/17 00:59:45;;;;;;;;;44.33;41.33;;;;;;;;5045893;28;11652;-86
2021/01/17 01:02:12;;;;;;;;;41.00;34.33;;;;;;;;5040555;28;11570;-82
2021/01/17 01:04:39;;;;;;;;;41.00;36.00;;;;;;;;5034401;28;11592;-84
2021/01/17 01:07:15;;;;;;;;;37.33;33.33;;;;;;;;5037809;28;11598;-84
2021/01/17 01:09:42;;;;;;;;;44.00;39.00;;;;;;;;5041261;28;11573;-84
2021/01/17 01:12:09;;;;;;;;;46.33;42.33;;;;;;;;5022852;28;11670;-83
2021/01/17 01:14:36;;;;;;;;;24.67;24.67;;;;;;;;5039319;28;11536;-86
2021/01/17 01:17:03;;;;;;;;;43.67;32.00;;;;;;;;5044718;28;11560;-85
2021/01/17 01:19:31;;;;;;;;;44.00;36.67;;;;;;;;5044210;28;11565;-86
2021/01/17 01:21:57;;;;;;;;;26.67;26.00;;;;;;;;5027948;28;11619;-84
2021/01/17 01:24:24;;;;;;;;;32.00;26.67;;;;;;;;5044616;28;11499;-84
2021/01/17 01:26:51;;;;;;;;;32.00;29.33;;;;;;;;5046099;28;11598;-85
2021/01/17 01:29:19;;;;;;;;;36.00;30.67;;;;;;;;5044303;28;11563;-85
2021/01/17 01:31:46;;;;;;;;;31.33;31.00;;;;;;;;5040876;28;11530;-84
2021/01/17 01:34:13;;;;;;;;;54.67;41.00;;;;;;;;5044166;28;11560;-86
2021/01/17 01:36:42;;;;;;;;;39.33;39.33;;;;;;;;5025465;28;11681;-83
2021/01/17 01:39:10;;;;;;;;;42.33;36.00;;;;;;;;5045353;28;11642;-85
2021/01/17 01:41:39;;;;;;;;;50.00;44.33;;;;;;;;5044593;28;11685;-86
2021/01/17 01:44:07;;;;;;;;;38.67;34.33;;;;;;;;5038523;28;11683;-85
2021/01/17 01:46:38;;;;;;;;;35.33;34.33;;;;;;;;5030257;28;11601;-84
2021/01/17 01:49:06;;;;;;;;;44.33;39.67;;;;;;;;5027862;28;11598;-83
2021/01/17 01:51:33;;;;;;;;;39.67;37.00;;;;;;;;5027142;28;11634;-82
2021/01/17 01:54:01;;;;;;;;;44.67;41.33;;;;;;;;5023839;28;11598;-81
2021/01/17 01:56:28;;;;;;;;;33.67;32.67;;;;;;;;5006261;28;11653;-82
2021/01/17 01:58:56;;;;;;;;;30.33;30.33;;;;;;;;5026932;28;11676;-84
2021/01/17 02:01:23;;;;;;;;;39.33;32.00;;;;;;;;5014677;28;11554;-83
2021/01/17 02:03:52;;;;;;;;;29.67;28.33;;;;;;;;5023552;28;11578;-87
2021/01/17 02:06:20;;;;;;;;;23.00;23.00;;;;;;;;5004458;28;11753;-85
2021/01/17 02:09:22;;;;;;;;;23.00;23.00;;;;;;;;5017376;28;11572;-83
2021/01/17 02:12:02;;;;;;;;;19.33;18.33;;;;;;;;4984636;28;11620;-77
2021/01/17 02:14:49;;;;;;;;;20.00;19.00;;;;;;;;5029179;28;11573;-83
2021/01/17 02:17:19;;;;;;;;;27.67;24.33;;;;;;;;5023832;28;11558;-79
2021/01/17 02:20:07;;;;;;;;;24.00;24.00;;;;;;;;5022937;28;11575;-81
2021/01/17 02:22:37;;;;;;;;;29.25;23.00;;;;;;;;5020839;28;11670;-83
2021/01/17 02:25:07;;;;;;;;;23.67;22.33;;;;;;;;5021750;28;11577;-79
2021/01/17 02:27:35;;;;;;;;;28.33;23.33;;;;;;;;5017897;28;11553;-84
2021/01/17 02:30:04;;;;;;;;;25.67;25.67;;;;;;;;5013827;28;11639;-86
2021/01/17 02:32:32;;;;;;;;;28.33;20.00;;;;;;;;5026706;28;12276;-87
2021/01/17 02:34:59;;;;;;;;;17.75;16.50;;;;;;;;5025647;28;11539;-84
2021/01/17 02:37:32;;;;;;;;;23.00;23.00;;;;;;;;5005607;28;11868;-86
2021/01/17 02:40:05;;;;;;;;;28.50;24.25;;;;;;;;5029386;28;11530;-86
2021/01/17 02:42:33;;;;;;;;;21.50;19.50;;;;;;;;5026195;28;11547;-86
2021/01/17 02:45:00;;;;;;;;;22.25;21.00;;;;;;;;5026208;28;11555;-85
2021/01/17 02:47:28;;;;;;;;;27.00;21.25;;;;;;;;5006247;28;11618;-84
2021/01/17 02:49:55;;;;;;;;;23.00;19.75;;;;;;;;5015846;28;11617;-86
2021/01/17 02:52:30;;;;;;;;;23.25;20.75;;;;;;;;5021622;28;11560;-86
2021/01/17 02:55:00;;;;;;;;;19.50;15.25;;;;;;;;4998102;28;11560;-84
2021/01/17 02:57:29;;;;;;;;;29.50;19.75;;;;;;;;5004838;28;11659;-86
2021/01/17 02:59:58;;;;;;;;;24.75;19.75;;;;;;;;5002614;28;11695;-82
2021/01/17 03:02:30;;;;;;;;;25.75;21.00;;;;;;;;5015529;28;11649;-85
2021/01/17 03:04:59;;;;;;;;;19.00;18.50;;;;;;;;5016340;28;11565;-86
2021/01/17 03:07:29;;;;;;;;;19.50;19.50;;;;;;;;5022646;28;11579;-86
2021/01/17 03:09:56;;;;;;;;;18.75;17.50;;;;;;;;5018102;28;11540;-88
2021/01/17 03:12:23;;;;;;;;;25.00;18.25;;;;;;;;5022717;28;11565;-88
2021/01/17 03:14:52;;;;;;;;;25.75;17.75;;;;;;;;5006653;28;11505;-88
2021/01/17 03:17:18;;;;;;;;;21.00;16.50;;;;;;;;5023185;28;11559;-87
2021/01/17 03:19:45;;;;;;;;;25.00;18.50;;;;;;;;5023891;28;11592;-85
2021/01/17 03:22:12;;;;;;;;;15.25;13.75;;;;;;;;5022200;28;11563;-84
2021/01/17 03:24:39;;;;;;;;;16.50;16.25;;;;;;;;5022444;28;11568;-83
2021/01/17 03:27:06;;;;;;;;;20.67;18.33;;;;;;;;5021048;28;11604;-83
2021/01/17 03:29:33;;;;;;;;;15.00;13.75;;;;;;;;5023220;28;11558;-83
2021/01/17 03:32:01;;;;;;;;;19.25;17.25;;;;;;;;5023051;28;11575;-84
2021/01/17 03:34:27;;;;;;;;;19.50;19.50;;;;;;;;5005117;28;11549;-86
2021/01/17 03:36:54;;;;;;;;;28.75;25.25;;;;;;;;5023597;28;11544;-86
2021/01/17 03:39:21;;;;;;;;;23.50;20.00;;;;;;;;5019954;28;11597;-83
2021/01/17 03:41:48;;;;;;;;;26.50;20.50;;;;;;;;5022456;28;11664;-82
2021/01/17 03:44:15;;;;;;;;;22.75;16.25;;;;;;;;5004032;28;11686;-82
2021/01/17 03:46:42;;;;;;;;;22.00;22.00;;;;;;;;5022293;28;11523;-82
2021/01/17 03:49:10;;;;;;;;;14.00;12.25;;;;;;;;5027204;28;11687;-82
2021/01/17 03:51:37;;;;;;;;;20.00;17.75;;;;;;;;5021867;28;11771;-82
2021/01/17 03:54:04;;;;;;;;;17.00;14.50;;;;;;;;5021393;28;11624;-82
2021/01/17 03:56:31;;;;;;;;;21.75;17.50;;;;;;;;5020688;28;11587;-83
2021/01/17 03:58:57;;;;;;;;;13.25;13.25;;;;;;;;5027147;28;11580;-83
2021/01/17 04:01:24;;;;;;;;;13.50;13.50;;;;;;;;5019216;28;11518;-83
2021/01/17 04:03:51;;;;;;;;;15.50;13.75;;;;;;;;5020462;28;11555;-85
2021/01/17 04:06:19;;;;;;;;;17.25;17.00;;;;;;;;5023540;28;11554;-84
2021/01/17 04:08:46;;;;;;;;;16.25;14.00;;;;;;;;5024080;28;11540;-84
2021/01/17 04:11:13;;;;;;;;;14.00;14.00;;;;;;;;5025367;28;11588;-85
2021/01/17 04:13:39;;;;;;;;;14.50;13.25;;;;;;;;5022277;28;11588;-87
2021/01/17 04:16:09;;;;;;;;;13.75;13.50;;;;;;;;5022000;28;11555;-83
2021/01/17 04:18:36;;;;;;;;;28.75;22.25;;;;;;;;5021000;28;11565;-88
2021/01/17 04:21:03;;;;;;;;;10.00;10.00;;;;;;;;5015470;28;11539;-89
2021/01/17 04:23:31;;;;;;;;;14.00;14.00;;;;;;;;5022112;28;11533;-82
2021/01/17 04:25:58;;;;;;;;;16.50;14.25;;;;;;;;5020167;28;11572;-84
2021/01/17 04:28:25;;;;;;;;;19.75;15.75;;;;;;;;5020548;28;11511;-86
2021/01/17 04:30:52;;;;;;;;;9.00;7.75;;;;;;;;5020310;28;11487;-86
2021/01/17 04:33:19;;;;;;;;;14.00;14.00;;;;;;;;5022870;28;11552;-84
2021/01/17 04:35:46;;;;;;;;;18.25;17.00;;;;;;;;5020487;28;11583;-83
2021/01/17 04:38:14;;;;;;;;;13.50;13.50;;;;;;;;5016796;28;11650;-85
2021/01/17 04:40:42;;;;;;;;;12.50;10.00;;;;;;;;5019661;28;11578;-84
2021/01/17 04:43:10;;;;;;;;;10.00;10.00;;;;;;;;5013201;28;11593;-85
2021/01/17 04:45:38;;;;;;;;;10.00;7.75;;;;;;;;5022024;28;12280;-85
2021/01/17 04:48:05;;;;;;;;;9.50;9.50;;;;;;;;5019751;28;11555;-84
2021/01/17 04:50:33;;;;;;;;;12.00;12.00;;;;;;;;5021571;28;11489;-87
2021/01/17 04:53:02;;;;;;;;;12.25;9.75;;;;;;;;5020003;28;11513;-84
2021/01/17 04:55:29;;;;;;;;;17.75;11.00;;;;;;;;5019712;28;11595;-78
2021/01/17 04:58:05;;;;;;;;;7.75;6.00;;;;;;;;5020999;28;11558;-84
2021/01/17 05:00:33;;;;;;;;;11.25;11.25;;;;;;;;5012221;28;11448;-81
2021/01/17 05:03:18;;;;;;;;;8.75;8.50;;;;;;;;5016947;28;11521;-85
2021/01/17 05:05:53;;;;;;;;;11.25;8.00;;;;;;;;5016351;28;12946;-85
2021/01/17 05:08:31;;;;;;;;;10.75;8.25;;;;;;;;5021013;28;11529;-87
2021/01/17 05:11:08;;;;;;;;;6.00;6.00;;;;;;;;5026554;28;11540;-85
2021/01/17 05:13:38;;;;;;;;;11.50;11.50;;;;;;;;5025641;28;11524;-85
2021/01/17 05:16:07;;;;;;;;;10.50;8.50;;;;;;;;5021122;28;11582;-86
2021/01/17 05:18:35;;;;;;;;;16.25;11.00;;;;;;;;5023267;28;11543;-85
2021/01/17 05:21:04;;;;;;;;;14.50;11.25;;;;;;;;5016491;28;11590;-86
2021/01/17 05:23:34;;;;;;;;;12.25;12.25;;;;;;;;5022979;28;11529;-84
2021/01/17 05:26:02;;;;;;;;;15.25;10.00;;;;;;;;5025714;28;12913;-83
2021/01/17 05:28:30;;;;;;;;;10.75;10.75;;;;;;;;5022687;28;11663;-84
2021/01/17 05:30:59;;;;;;;;;14.00;11.00;;;;;;;;5019507;28;11488;-83
2021/01/17 05:33:31;;;;;;;;;13.00;9.25;;;;;;;;5025094;28;11542;-81
2021/01/17 05:36:00;;;;;;;;;10.50;8.50;;;;;;;;5024467;28;11509;-80
2021/01/17 05:38:27;;;;;;;;;11.25;9.00;;;;;;;;5018995;28;11555;-81
2021/01/17 05:40:54;;;;;;;;;5.00;4.50;;;;;;;;5001316;28;11543;-81
2021/01/17 05:43:21;;;;;;;;;6.50;6.50;;;;;;;;5025232;28;12309;-81
2021/01/17 05:45:48;;;;;;;;;6.50;6.50;;;;;;;;5024246;28;11530;-82
2021/01/17 05:48:16;;;;;;;;;10.25;7.00;;;;;;;;5006618;28;12356;-83
2021/01/17 05:50:45;;;;;;;;;3.00;3.00;;;;;;;;5026031;28;11483;-83
2021/01/17 05:53:12;;;;;;;;;4.00;2.00;;;;;;;;5017622;28;11586;-82
2021/01/17 05:55:40;;;;;;;;;2.50;2.50;;;;;;;;5018420;28;11534;-83
2021/01/17 05:58:31;;;;;;;;;4.75;4.25;;;;;;;;5023921;28;11542;-83
2021/01/17 06:00:59;;;;;;;;;9.00;5.00;;;;;;;;4997562;28;11528;-83
2021/01/17 06:03:29;;;;;;;;;2.00;2.00;;;;;;;;5015074;28;11531;-83
2021/01/17 06:06:00;;;;;;;;;5.75;4.00;;;;;;;;5020985;28;11606;-82
2021/01/17 06:08:28;;;;;;;;;4.75;4.75;;;;;;;;5021236;28;11516;-80
2021/01/17 06:10:57;;;;;;;;;4.50;4.50;;;;;;;;5034977;28;11585;-83
2021/01/17 06:13:25;;;;;;;;;3.50;3.50;;;;;;;;5023734;28;11635;-79
2021/01/17 06:15:52;;;;;;;;;2.25;2.25;;;;;;;;5021254;28;11688;-80
2021/01/17 06:18:20;;;;;;;;;2.00;2.00;;;;;;;;4995212;28;11520;-81
2021/01/17 06:20:48;;;;;;;;;4.50;4.00;;;;;;;;5013239;28;11648;-81
2021/01/17 06:23:21;;;;;;;;;0.00;0.00;;;;;;;;5021562;28;11563;-83
2021/01/17 06:26:02;;;;;;;;;5.75;3.00;;;;;;;;5008820;28;11512;-82
2021/01/17 06:28:42;;;;;;;;;2.00;2.00;;;;;;;;5019774;28;11653;-81
2021/01/17 06:31:12;;;;;;;;;1.75;1.75;;;;;;;;5023904;28;11533;-81
2021/01/17 06:33:40;;;;;;;;;2.00;2.00;;;;;;;;5024798;28;11556;-82
2021/01/17 06:36:16;;;;;;;;;2.00;2.00;;;;;;;;5024603;28;11522;-83
2021/01/17 06:38:44;;;;;;;;;1.75;1.75;;;;;;;;5020027;28;11505;-80
2021/01/17 06:41:11;;;;;;;;;1.25;1.25;;;;;;;;5025626;28;11639;-79
2021/01/17 06:43:42;;;;;;;;;2.75;1.25;;;;;;;;5006070;28;11498;-83
2021/01/17 06:46:10;;;;;;;;;7.00;2.00;;;;;;;;5014132;28;11627;-82
2021/01/17 06:48:38;;;;;;;;;6.00;2.00;;;;;;;;5006103;28;11528;-78
2021/01/17 06:51:20;;;;;;;;;4.25;2.00;;;;;;;;5018360;28;11521;-83
2021/01/17 06:53:54;;;;;;;;;3.00;2.00;;;;;;;;5019890;28;11697;-82
2021/01/17 06:56:21;;;;;;;;;4.50;1.75;;;;;;;;5022880;28;11525;-80
2021/01/17 06:58:51;;;;;;;;;4.00;2.00;;;;;;;;5022926;28;13967;-79
2021/01/17 07:01:27;;;;;;;;;2.00;2.00;;;;;;;;5018806;28;11466;-80
2021/01/17 07:04:18;;;;;;;;;1.00;1.00;;;;;;;;5016944;28;12338;-78
2021/01/17 07:07:23;;;;;;;;;2.00;2.00;;;;;;;;5019180;28;13179;-79
2021/01/17 07:09:51;;;;;;;;;2.00;2.00;;;;;;;;5013478;28;11560;-80
2021/01/17 07:12:25;;;;;;;;;1.25;1.25;;;;;;;;5024272;28;11525;-80
2021/01/17 07:15:03;;;;;;;;;4.25;2.00;;;;;;;;5033342;28;11509;-77
2021/01/17 07:17:33;;;;;;;;;2.50;2.00;;;;;;;;5021457;28;11517;-87
2021/01/17 07:20:04;;;;;;;;;1.75;1.00;;;;;;;;5023702;28;11505;-77
2021/01/17 07:22:35;;;;;;;;;2.00;2.00;;;;;;;;5007210;28;11617;-81
2021/01/17 07:25:02;;;;;;;;;2.50;2.00;;;;;;;;5024441;28;11528;-78
2021/01/17 07:28:03;;;;;;;;;2.00;2.00;;;;;;;;5031423;28;11509;-84
2021/01/17 07:30:50;;;;;;;;;2.00;1.00;;;;;;;;5022517;28;11473;-78
2021/01/17 07:33:23;;;;;;;;;1.50;1.50;;;;;;;;5021227;28;11603;-78
2021/01/17 07:35:51;;;;;;;;;1.50;1.50;;;;;;;;5027656;28;11489;-80
2021/01/17 07:38:20;;;;;;;;;1.00;1.00;;;;;;;;5005246;28;12324;-78
2021/01/17 07:40:51;;;;;;;;;1.25;1.25;;;;;;;;5028128;28;11586;-82
2021/01/17 07:43:19;;;;;;;;;5.50;1.75;;;;;;;;5025450;28;11584;-82
2021/01/17 07:45:46;;;;;;;;;4.00;1.25;;;;;;;;5002767;28;11556;-83
2021/01/17 07:48:26;;;;;;;;;2.00;2.00;;;;;;;;5023517;28;11588;-80
2021/01/17 07:50:54;;;;;;;;;1.00;1.00;;;;;;;;5014334;28;11615;-81
2021/01/17 07:53:35;;;;;;;;;2.50;2.00;;;;;;;;5024740;28;11571;-84
2021/01/17 07:56:27;;;;;;;;;1.00;1.00;;;;;;;;5022991;28;11543;-84
2021/01/17 07:58:58;;;;;;;;;3.50;2.00;;;;;;;;5018523;28;11544;-83
2021/01/17 08:01:45;;;;;;;;;1.75;1.75;;;;;;;;5023796;28;12183;-82
2021/01/17 08:04:29;;;;;;;;;3.00;2.00;;;;;;;;5007627;28;11593;-85
2021/01/17 08:07:02;;;;;;;;;1.75;0.25;;;;;;;;5024860;28;11532;-85
2021/01/17 08:09:49;;;;;;;;;0.00;0.00;;;;;;;;5024109;28;11564;-82
2021/01/17 08:12:46;;;;;;;;;1.75;1.75;;;;;;;;5023333;28;11588;-81
2021/01/17 08:15:24;;;;;;;;;0.00;0.00;;;;;;;;4963411;28;11651;-82
2021/01/17 08:17:59;;;;;;;;;5.00;1.00;;;;;;;;5012578;28;11563;-85
2021/01/17 08:20:29;;;;;;;;;0.50;0.50;;;;;;;;5007975;28;11508;-82
2021/01/17 08:23:12;;;;;;;;;0.00;0.00;;;;;;;;5020918;28;11747;-82
2021/01/17 08:25:58;;;;;;;;;2.00;1.00;;;;;;;;5019480;28;11601;-84
2021/01/17 08:28:46;;;;;;;;;2.00;1.00;;;;;;;;5013012;28;11568;-82
2021/01/17 08:31:35;;;;;;;;;4.00;1.75;;;;;;;;5010207;28;11489;-83
2021/01/17 08:34:13;;;;;;;;;0.50;0.50;;;;;;;;5022519;28;11602;-84
2021/01/17 08:36:41;;;;;;;;;0.00;0.00;;;;;;;;5020884;28;11686;-83
2021/01/17 08:39:08;;;;;;;;;3.75;1.25;;;;;;;;5020777;28;11514;-82
2021/01/17 08:41:39;;;;;;;;;0.50;0.50;;;;;;;;5021767;28;11535;-70
2021/01/17 08:44:08;;;;;;;;;0.75;0.50;;;;;;;;5015175;28;11621;-71
2021/01/17 08:46:37;;;;;;;;;0.00;0.00;;;;;;;;5018762;28;11656;-70
2021/01/17 08:49:05;;;;;;;;;1.25;1.25;;;;;;;;5019179;28;11663;-70
2021/01/17 08:51:32;;;;;;;;;1.00;1.00;;;;;;;;5023746;28;12327;-70
2021/01/17 08:54:25;;;;;;;;;5.00;2.00;;;;;;;;5025937;28;12285;-72
2021/01/17 08:56:56;;;;;;;;;1.25;1.25;;;;;;;;5025435;28;11526;-71
2021/01/17 08:59:38;;;;;;;;;1.00;1.00;;;;;;;;5019593;28;11580;-71
2021/01/17 09:02:05;;;;;;;;;1.00;1.00;;;;;;;;5020732;28;11515;-73
2021/01/17 09:04:33;;;;;;;;;2.50;2.50;;;;;;;;5024438;28;11592;-71
2021/01/17 09:07:00;;;;;;;;;1.25;1.25;;;;;;;;5023788;28;12405;-72
2021/01/17 09:09:27;;;;;;;;;0.50;0.25;;;;;;;;5024197;28;12239;-72
2021/01/17 09:11:55;;;;;;;;;1.00;1.00;;;;;;;;5023879;28;11652;-72
2021/01/17 09:14:27;;;;;;;;;1.00;1.00;;;;;;;;5024020;28;11684;-73
2021/01/17 09:16:56;;;;;;;;;3.50;1.00;;;;;;;;5023980;28;11910;-71
2021/01/17 09:19:25;;;;;;;;;1.75;1.75;;;;;;;;5024770;28;11500;-71
2021/01/17 09:21:53;;;;;;;;;1.75;1.00;;;;;;;;5025461;28;11690;-71
2021/01/17 09:24:21;;;;;;;;;7.25;3.00;;;;;;;;5023746;28;11585;-72
2021/01/17 09:26:50;;;;;;;;;0.25;0.00;;;;;;;;5023793;28;11588;-72
2021/01/17 09:29:31;;;;;;;;;1.75;1.75;;;;;;;;5025223;28;11586;-72
2021/01/17 09:32:06;;;;;;;;;2.00;2.00;;;;;;;;5022568;28;11532;-72
2021/01/17 09:34:34;;;;;;;;;0.75;0.75;;;;;;;;5024857;28;11583;-72
2021/01/17 09:37:02;;;;;;;;;3.50;3.50;;;;;;;;5022838;28;11566;-72
2021/01/17 09:39:36;;;;;;;;;5.50;4.00;;;;;;;;5024932;28;11576;-72
2021/01/17 09:42:05;;;;;;;;;5.00;3.50;;;;;;;;5024375;28;11575;-72
2021/01/17 09:44:34;;;;;;;;;6.00;4.50;;;;;;;;5024633;28;11655;-73
2021/01/17 09:47:02;;;;;;;;;6.75;4.00;;;;;;;;5023517;28;11584;-72
2021/01/17 09:49:31;;;;;;;;;5.00;5.00;;;;;;;;5024636;28;11544;-71
2021/01/17 09:51:58;;;;;;;;;6.75;4.50;;;;;;;;5024977;28;11557;-72
2021/01/17 09:54:25;;;;;;;;;3.00;3.00;;;;;;;;5023181;28;11643;-72
2021/01/17 09:56:52;;;;;;;;;7.00;4.25;;;;;;;;5023952;28;11586;-71
2021/01/17 09:59:22;;;;;;;;;5.75;3.50;;;;;;;;5024127;28;10988;-71
2021/01/17 10:01:51;;;;;;;;;2.50;2.50;;;;;;;;5017085;28;11570;-72
2021/01/17 10:04:23;;;;;;;;;7.00;5.00;;;;;;;;5023949;28;11481;-73
2021/01/17 10:06:51;;;;;;;;;6.00;2.00;;;;;;;;5020291;28;12334;-70
2021/01/17 10:09:19;;;;;;;;;4.25;4.00;;;;;;;;5023907;28;11641;-69
2021/01/17 10:11:46;;;;;;;;;6.25;6.25;;;;;;;;5022898;28;11583;-70
2021/01/17 10:14:14;;;;;;;;;4.00;3.00;;;;;;;;5023937;28;11578;-71
2021/01/17 10:16:51;;;;;;;;;4.25;4.25;;;;;;;;5022229;28;12206;-71
2021/01/17 10:19:32;;;;;;;;;5.75;5.75;;;;;;;;5030217;28;11548;-70
2021/01/17 10:22:00;;;;;;;;;6.00;6.00;;;;;;;;5017266;28;12427;-71
2021/01/17 10:24:28;;;;;;;;;7.50;5.00;;;;;;;;5022529;28;11570;-69
2021/01/17 10:26:57;;;;;;;;;5.00;4.25;;;;;;;;5023417;28;11594;-69
2021/01/17 10:29:26;;;;;;;;;3.50;3.50;;;;;;;;5023118;28;11521;-71
2021/01/17 10:31:58;;;;;;;;;4.00;4.00;;;;;;;;5022407;28;11525;-69
2021/01/17 10:34:28;;;;;;;;;4.50;4.50;;;;;;;;5020893;28;11581;-69
2021/01/17 10:36:57;;;;;;;;;6.50;5.75;;;;;;;;5016808;28;11623;-71
2021/01/17 10:39:24;;;;;;;;;4.50;4.50;;;;;;;;5013735;28;11557;-69
2021/01/17 10:41:54;;;;;;;;;2.50;2.50;;;;;;;;5018299;28;11741;-69
2021/01/17 10:44:27;;;;;;;;;10.25;5.00;;;;;;;;5016487;28;11498;-70
2021/01/17 10:47:02;;;;;;;;;6.00;2.00;;;;;;;;5021534;28;11571;-69
2021/01/17 10:49:34;;;;;;;;;4.00;4.00;;;;;;;;5020598;28;11543;-69
2021/01/17 10:52:06;;;;;;;;;4.75;4.00;;;;;;;;5021831;28;11568;-69
2021/01/17 10:54:34;;;;;;;;;10.75;4.75;;;;;;;;5022766;28;11591;-70
2021/01/17 10:57:04;;;;;;;;;5.25;4.00;;;;;;;;5020521;28;11597;-70
2021/01/17 10:59:32;;;;;;;;;8.50;4.00;;;;;;;;5021392;28;11574;-70
2021/01/17 11:02:00;;;;;;;;;5.25;4.00;;;;;;;;5021338;28;12449;-71
2021/01/17 11:04:38;;;;;;;;;6.50;4.50;;;;;;;;5022235;28;11525;-70
2021/01/17 11:07:06;;;;;;;;;6.25;4.50;;;;;;;;5021742;28;11587;-71
2021/01/17 11:09:33;;;;;;;;;5.00;2.25;;;;;;;;5019525;28;11514;-70
2021/01/17 11:12:00;;;;;;;;;4.00;4.00;;;;;;;;5017718;28;11513;-71
2021/01/17 11:14:30;;;;;;;;;5.00;5.00;;;;;;;;5021263;28;11502;-72
2021/01/17 11:16:57;;;;;;;;;4.25;2.00;;;;;;;;5019998;28;11495;-69
2021/01/17 11:19:35;;;;;;;;;9.00;5.00;;;;;;;;5021885;28;11520;-68
2021/01/17 11:22:02;;;;;;;;;6.00;4.00;;;;;;;;5021847;28;11526;-69
2021/01/17 11:24:36;;;;;;;;;3.50;3.50;;;;;;;;5020086;28;11510;-72
2021/01/17 11:27:12;;;;;;;;;3.50;3.50;;;;;;;;5026057;28;12368;-70
2021/01/17 11:29:39;;;;;;;;;3.00;3.00;;;;;;;;5020855;28;11619;-72
2021/01/17 11:32:06;;;;;;;;;6.75;5.00;;;;;;;;5020923;28;11482;-72
2021/01/17 11:34:35;;;;;;;;;3.00;3.00;;;;;;;;5020960;28;11568;-71
2021/01/17 11:37:02;;;;;;;;;2.00;2.00;;;;;;;;5021024;28;11534;-71
2021/01/17 11:39:29;;;;;;;;;7.50;3.50;;;;;;;;5021746;28;11497;-72
2021/01/17 11:41:56;;;;;;;;;3.25;3.25;;;;;;;;5022328;28;11543;-71
2021/01/17 11:44:24;;;;;;;;;1.75;1.75;;;;;;;;5022691;28;11550;-71
2021/01/17 11:46:51;;;;;;;;;4.25;3.00;;;;;;;;5034212;28;11492;-71
2021/01/17 11:49:25;;;;;;;;;4.00;4.00;;;;;;;;5038023;28;11465;-72
2021/01/17 11:51:54;;;;;;;;;3.50;3.50;;;;;;;;5025276;28;11530;-72
2021/01/17 11:54:22;;;;;;;;;3.00;3.00;;;;;;;;5015831;28;11560;-72
2021/01/17 11:56:49;;;;;;;;;6.00;6.00;;;;;;;;5030840;28;11199;-71
2021/01/17 11:59:26;;;;;;;;;3.00;3.00;;;;;;;;5035807;28;11307;-71
2021/01/17 12:01:54;;;;;;;;;2.75;2.75;;;;;;;;5031900;28;11003;-69
2021/01/17 12:04:25;;;;;;;;;4.00;4.00;;;;;;;;5035148;28;11951;-72
2021/01/17 12:07:06;;;;;;;;;6.25;3.00;;;;;;;;5037212;28;11237;-72
2021/01/17 12:09:34;;;;;;;;;5.50;1.75;;;;;;;;5037051;28;11011;-70
2021/01/17 12:12:12;;;;;;;;;3.00;3.00;;;;;;;;5033984;28;11005;-71
2021/01/17 12:14:39;;;;;;;;;2.75;2.75;;;;;;;;5033516;28;10943;-71
2021/01/17 12:17:06;;;;;;;;;6.00;2.00;;;;;;;;5032416;28;11025;-71
2021/01/17 12:19:36;;;;;;;;;4.50;1.00;;;;;;;;5036425;28;11092;-70
2021/01/17 12:22:04;;;;;;;;;3.00;2.25;;;;;;;;5037969;28;11070;-71
2021/01/17 12:24:34;;;;;;;;;7.50;4.50;;;;;;;;5041509;28;11027;-71
2021/01/17 12:27:01;;;;;;;;;6.00;6.00;;;;;;;;5044479;28;11166;-71
2021/01/17 12:29:28;;;;;;;;;5.00;3.00;;;;;;;;5044531;28;11029;-70
2021/01/17 12:31:55;;;;;;;;;2.00;2.00;;;;;;;;5047413;28;11103;-70
2021/01/17 12:34:22;;;;;;;;;2.00;2.00;;;;;;;;5049184;28;10996;-71
2021/01/17 12:36:49;;;;;;;;;0.75;0.75;;;;;;;;5048755;28;11866;-70
2021/01/17 12:39:17;;;;;;;;;2.00;1.00;;;;;;;;5048620;28;11059;-70
2021/01/17 12:41:46;;;;;;;;;3.00;3.00;;;;;;;;5049109;28;10994;-70
2021/01/17 12:44:14;;;;;;;;;2.75;2.75;;;;;;;;5048845;28;11027;-69
2021/01/17 12:46:41;;;;;;;;;1.75;1.75;;;;;;;;5010101;28;10847;-70
2021/01/17 12:49:08;;;;;;;;;2.00;2.00;;;;;;;;5027407;28;10897;-71
2021/01/17 12:51:35;;;;;;;;;3.00;2.25;;;;;;;;5028031;28;10913;-71
2021/01/17 12:54:02;;;;;;;;;0.50;0.00;;;;;;;;5020119;28;11038;-71
2021/01/17 12:56:29;;;;;;;;;3.25;1.75;;;;;;;;5025691;28;10903;-70
2021/01/17 12:58:57;;;;;;;;;4.25;1.25;;;;;;;;5026631;28;11664;-71
2021/01/17 13:01:24;;;;;;;;;3.00;2.00;;;;;;;;5025098;28;10957;-70
2021/01/17 13:03:51;;;;;;;;;2.50;1.50;;;;;;;;5026739;28;11723;-70
2021/01/17 13:06:17;;;;;;;;;1.50;1.50;;;;;;;;5026178;28;11016;-72
2021/01/17 13:08:45;;;;;;;;;3.00;1.00;;;;;;;;5026746;28;11017;-72
2021/01/17 13:11:13;;;;;;;;;1.25;1.25;;;;;;;;5024320;28;11940;-72
2021/01/17 13:13:41;;;;;;;;;5.50;3.00;;;;;;;;5027834;28;11228;-72
2021/01/17 13:16:13;;;;;;;;;2.00;2.00;;;;;;;;5026312;28;11098;-72
2021/01/17 13:18:39;;;;;;;;;0.50;0.50;;;;;;;;5002150;28;11335;-72
2021/01/17 13:21:06;;;;;;;;;3.00;1.00;;;;;;;;5026859;28;10832;-70
2021/01/17 13:23:33;;;;;;;;;3.75;2.00;;;;;;;;5027032;28;11080;-71
2021/01/17 13:26:00;;;;;;;;;2.25;1.00;;;;;;;;5027287;28;11012;-72
2021/01/17 13:28:27;;;;;;;;;2.00;2.00;;;;;;;;5027188;28;11917;-72
2021/01/17 13:30:54;;;;;;;;;2.75;1.00;;;;;;;;5021287;28;10882;-71
2021/01/17 13:33:22;;;;;;;;;3.50;1.00;;;;;;;;5022932;28;10950;-70
2021/01/17 13:35:51;;;;;;;;;0.00;0.00;;;;;;;;5023261;28;11048;-71
2021/01/17 13:38:19;;;;;;;;;1.25;1.25;;;;;;;;5020034;28;10997;-70
2021/01/17 13:40:47;;;;;;;;;3.00;1.50;;;;;;;;5015545;28;11256;-71
2021/01/17 13:43:14;;;;;;;;;1.00;1.00;;;;;;;;5019318;28;11232;-70
2021/01/17 13:45:41;;;;;;;;;1.00;1.00;;;;;;;;5019460;28;10984;-70
2021/01/17 13:48:10;;;;;;;;;2.50;1.00;;;;;;;;5021255;28;11931;-70
2021/01/17 13:50:38;;;;;;;;;1.00;1.00;;;;;;;;4999924;28;11220;-71
2021/01/17 13:53:05;;;;;;;;;3.00;1.00;;;;;;;;5021752;28;10932;-71
2021/01/17 13:55:32;;;;;;;;;3.50;0.00;;;;;;;;5022215;28;10737;-71
2021/01/17 13:57:59;;;;;;;;;2.50;0.50;;;;;;;;5022580;28;10775;-71
2021/01/17 14:00:28;;;;;;;;;4.25;0.50;;;;;;;;5013027;28;10833;-72
2021/01/17 14:02:55;;;;;;;;;0.00;0.00;;;;;;;;5016323;28;11040;-70
2021/01/17 14:05:22;;;;;;;;;4.25;1.75;;;;;;;;5019188;28;10955;-71
2021/01/17 14:07:51;;;;;;;;;1.00;1.00;;;;;;;;5015416;28;11009;-70
2021/01/17 14:10:22;;;;;;;;;0.00;0.00;;;;;;;;5021880;28;10857;-70
2021/01/17 14:12:50;;;;;;;;;2.00;0.00;;;;;;;;5019736;28;10946;-71
2021/01/17 14:15:18;;;;;;;;;0.50;0.50;;;;;;;;5020709;28;10941;-71
2021/01/17 14:17:47;;;;;;;;;1.75;1.75;;;;;;;;5023749;28;11082;-71
2021/01/17 14:20:14;;;;;;;;;1.00;1.00;;;;;;;;5024215;28;11662;-70
2021/01/17 14:22:42;;;;;;;;;1.00;1.00;;;;;;;;5024350;28;10985;-70
2021/01/17 14:25:11;;;;;;;;;0.25;0.25;;;;;;;;5023005;28;11661;-71
2021/01/17 14:27:40;;;;;;;;;2.75;1.75;;;;;;;;5022171;28;10925;-71
2021/01/17 14:30:08;;;;;;;;;1.00;1.00;;;;;;;;5018227;28;11770;-71
2021/01/17 14:32:35;;;;;;;;;1.00;1.00;;;;;;;;5017222;28;11025;-71
2021/01/17 14:35:02;;;;;;;;;0.50;0.50;;;;;;;;5020610;28;11025;-71
2021/01/17 14:37:29;;;;;;;;;2.50;1.00;;;;;;;;5017667;28;10919;-71
2021/01/17 14:39:56;;;;;;;;;4.25;1.00;;;;;;;;5020825;28;11094;-71
2021/01/17 14:42:23;;;;;;;;;0.75;0.50;;;;;;;;5018112;28;11151;-70
2021/01/17 14:44:51;;;;;;;;;0.00;0.00;;;;;;;;5019473;28;10992;-71
2021/01/17 14:47:18;;;;;;;;;1.00;1.00;;;;;;;;5014904;28;10990;-70
2021/01/17 14:49:45;;;;;;;;;2.00;2.00;;;;;;;;5016509;28;10823;-70